Time;durP1;ratioP1;P1;durP2;ratioP2;P2;SDS_P1;SDS_P2;PMS_P1;PMS_P2;Temp;Humidity;BMP_temperature;BMP_pressure;BME280_temperature;BME280_humidity;BME280_pressure;Samples;Min_cycle;Max_cycle;Signal;HPM_P1;HPM_P2
2023/04/09 00:01:13;;;;;;;;;;;;;;;8.49;100.00;101177.22;5052725;28;19912;-78
2023/04/09 00:03:39;;;;;;;;;;;;;;;8.48;100.00;101172.78;5035008;28;20011;-77
2023/04/09 00:06:04;;;;;;;;;;;;;;;8.45;100.00;101171.66;5053510;28;20379;-78
2023/04/09 00:08:29;;;;;;;;;;;;;;;8.45;100.00;101171.66;5052954;28;20326;-78
2023/04/09 00:10:56;;;;;;;;;;;;;;;8.42;100.00;101175.41;5053409;28;20383;-78
2023/04/09 00:13:21;;;;;;;;;;;;;;;8.39;100.00;101170.63;5052736;28;20011;-77
2023/04/09 00:15:47;;;;;;;;;;;;;;;8.37;100.00;101171.06;5034734;28;19979;-78
2023/04/09 00:18:12;;;;;;;;;;;;;;;8.34;100.00;101174.03;5052619;28;20358;-78
2023/04/09 00:20:38;;;;;;;;;;;;;;;8.31;100.00;101170.03;5035821;28;20016;-77
2023/04/09 00:23:03;;;;;;;;;;;;;;;8.28;100.00;101170.97;5056713;28;20665;-79
2023/04/09 00:25:28;;;;;;;;;;;;;;;8.24;100.00;101170.28;5056426;28;20378;-80
2023/04/09 00:27:54;;;;;;;;;;;;;;;8.21;100.00;101168.34;5056329;28;19913;-78
2023/04/09 00:30:20;;;;;;;;;;;;;;;8.19;100.00;101170.84;5056197;28;19921;-78
2023/04/09 00:32:45;;;;;;;;;;;;;;;8.20;100.00;101175.31;5037991;28;19919;-78
2023/04/09 00:35:11;;;;;;;;;;;;;;;8.21;100.00;101170.41;5038092;28;19982;-79
2023/04/09 00:37:36;;;;;;;;;;;;;;;8.20;100.00;101168.81;5038230;28;20281;-77
2023/04/09 00:40:01;;;;;;;;;;;;;;;8.21;100.00;101170.41;5056251;28;19912;-80
2023/04/09 00:42:30;;;;;;;;;;;;;;;8.23;100.00;101173.59;5056040;28;19913;-79
2023/04/09 00:44:56;;;;;;;;;;;;;;;8.24;100.00;101181.69;5055881;28;19921;-78
2023/04/09 00:47:21;;;;;;;;;;;;;;;8.25;100.00;101176.78;5055896;28;20085;-78
2023/04/09 00:49:47;;;;;;;;;;;;;;;8.27;100.00;101177.09;5055868;28;19917;-80
2023/04/09 00:52:12;;;;;;;;;;;;;;;8.24;100.00;101178.03;5055572;28;19917;-77
2023/04/09 00:54:37;;;;;;;;;;;;;;;8.27;100.00;101186.44;5038093;28;20255;-77
2023/04/09 00:57:02;;;;;;;;;;;;;;;8.25;100.00;101173.94;5037512;28;19963;-77
2023/04/09 00:59:28;;;;;;;;;;;;;;;8.26;100.00;101175.53;5037532;28;19936;-78
2023/04/09 01:01:53;;;;;;;;;;;;;;;8.26;100.00;101181.22;5055506;28;19913;-77
2023/04/09 01:04:18;;;;;;;;;;;;;;;8.25;100.00;101180.44;5037482;28;20262;-78
2023/04/09 01:06:47;;;;;;;;;;;;;;;8.25;100.00;101185.31;5020754;28;19952;-77
2023/04/09 01:09:12;;;;;;;;;;;;;;;8.25;100.00;101186.13;5037239;28;20020;-78
2023/04/09 01:11:38;;;;;;;;;;;;;;;8.25;100.00;101186.13;5055081;28;20005;-78
2023/04/09 01:14:20;;;;;;;;;;;;;;;8.27;100.00;101179.97;5037986;28;20340;-78
2023/04/09 01:16:46;;;;;;;;;;;;;;;8.28;100.00;101187.25;5055642;28;20432;-77
2023/04/09 01:19:30;;;;;;;;;;;;;;;8.26;100.00;101181.22;5055068;28;19912;-78
2023/04/09 01:21:56;;;;;;;;;;;;;;;8.26;100.00;101201.94;5055213;28;19994;-77
2023/04/09 01:24:50;;;;;;;;;;;;;;;8.27;100.00;101197.84;5054894;28;20406;-77
2023/04/09 01:27:16;;;;;;;;;;;;;;;8.29;100.00;101203.09;5046422;28;19920;-78
2023/04/09 01:29:44;;;;;;;;;;;;;;;8.30;100.00;101201.84;5037059;28;19921;-76
2023/04/09 01:32:10;;;;;;;;;;;;;;;8.31;100.00;101204.22;5020166;28;19917;-78
2023/04/09 01:34:35;;;;;;;;;;;;;;;8.32;100.00;101205.00;5055150;28;19913;-77
2023/04/09 01:37:02;;;;;;;;;;;;;;;8.33;100.00;101195.22;5036950;28;19947;-77
2023/04/09 01:39:28;;;;;;;;;;;;;;;8.34;100.00;101203.31;5036976;28;19923;-77
2023/04/09 01:41:53;;;;;;;;;;;;;;;8.35;100.00;101206.97;5054778;28;19912;-78
2023/04/09 01:44:18;;;;;;;;;;;;;;;8.33;100.00;101209.47;5054425;28;19920;-77
2023/04/09 01:46:45;;;;;;;;;;;;;;;8.30;100.00;101211.19;5054551;28;20003;-77
2023/04/09 01:49:10;;;;;;;;;;;;;;;8.26;100.00;101207.63;5036651;28;20441;-77
2023/04/09 01:51:36;;;;;;;;;;;;;;;8.22;100.00;101214.69;5036865;28;20007;-76
2023/04/09 01:54:01;;;;;;;;;;;;;;;8.18;100.00;101214.81;5054531;28;20000;-78
2023/04/09 01:56:27;;;;;;;;;;;;;;;8.11;100.00;101214.22;5054756;28;20316;-76
2023/04/09 01:58:52;;;;;;;;;;;;;;;8.06;100.00;101218.44;5054595;28;19921;-76
2023/04/09 02:01:20;;;;;;;;;;;;;;;8.00;100.00;101217.38;5054372;28;19913;-78
2023/04/09 02:03:46;;;;;;;;;;;;;;;7.94;100.00;101217.16;5054576;28;19912;-78
2023/04/09 02:06:12;;;;;;;;;;;;;;;7.88;100.00;101213.25;5054422;28;20011;-77
2023/04/09 02:08:37;;;;;;;;;;;;;;;7.82;100.00;101217.09;5054087;28;20052;-76
2023/04/09 02:11:03;;;;;;;;;;;;;;;7.80;100.00;101213.94;5036223;28;19913;-78
2023/04/09 02:13:28;;;;;;;;;;;;;;;7.79;100.00;101209.47;5036277;28;20335;-79
2023/04/09 02:15:53;;;;;;;;;;;;;;;7.80;100.00;101211.09;5036251;28;20016;-78
2023/04/09 02:18:23;;;;;;;;;;;;;;;7.75;100.00;101214.47;5036463;28;19996;-76
2023/04/09 02:20:48;;;;;;;;;;;;;;;7.71;100.00;101220.28;5055285;28;19913;-77
2023/04/09 02:23:14;;;;;;;;;;;;;;;7.69;100.00;101216.28;5040926;28;19913;-78
2023/04/09 02:25:39;;;;;;;;;;;;;;;7.68;100.00;101217.53;5058750;28;20007;-79
2023/04/09 02:28:05;;;;;;;;;;;;;;;7.67;100.00;101213.09;5040520;28;19952;-78
2023/04/09 02:30:30;;;;;;;;;;;;;;;7.65;100.00;101216.38;5056437;28;19917;-79
2023/04/09 02:32:55;;;;;;;;;;;;;;;7.63;100.00;101218.88;5054437;28;19913;-78
2023/04/09 02:35:20;;;;;;;;;;;;;;;7.60;100.00;101218.97;5054464;28;19912;-78
2023/04/09 02:37:46;;;;;;;;;;;;;;;7.56;100.00;101216.25;5053977;28;20251;-77
2023/04/09 02:40:11;;;;;;;;;;;;;;;7.54;100.00;101228.06;5053973;28;19913;-77
2023/04/09 02:42:36;;;;;;;;;;;;;;;7.54;100.00;101224.41;5035356;28;20219;-77
2023/04/09 02:45:02;;;;;;;;;;;;;;;7.53;100.00;101222.81;5053120;28;20278;-77
2023/04/09 02:47:29;;;;;;;;;;;;;;;7.54;100.00;101224.41;5053776;28;19959;-76
2023/04/09 02:49:54;;;;;;;;;;;;;;;7.56;100.00;101227.63;5053878;28;19916;-79
2023/04/09 02:52:23;;;;;;;;;;;;;;;7.56;100.00;101216.25;5035995;28;19917;-78
2023/04/09 02:54:48;;;;;;;;;;;;;;;7.58;100.00;101216.56;5035886;28;19916;-79
2023/04/09 02:57:13;;;;;;;;;;;;;;;7.58;100.00;101212.94;5053366;28;19913;-77
2023/04/09 02:59:39;;;;;;;;;;;;;;;7.59;100.00;101221.03;5035690;28;20333;-77
2023/04/09 03:02:04;;;;;;;;;;;;;;;7.58;100.00;101215.78;5036097;28;19913;-78
2023/04/09 03:04:30;;;;;;;;;;;;;;;7.53;100.00;101220.78;5036320;28;19923;-78
2023/04/09 03:06:55;;;;;;;;;;;;;;;7.50;100.00;101220.88;5054426;28;19913;-76
2023/04/09 03:09:20;;;;;;;;;;;;;;;7.47;100.00;101221.78;5053352;28;20323;-78
2023/04/09 03:11:45;;;;;;;;;;;;;;;7.49;100.00;101216.44;5053369;28;19913;-77
2023/04/09 03:14:11;;;;;;;;;;;;;;;7.54;100.00;101213.03;5053555;28;20358;-78
2023/04/09 03:16:36;;;;;;;;;;;;;;;7.56;100.00;101212.59;5035324;28;19917;-77
2023/04/09 03:19:01;;;;;;;;;;;;;;;7.56;100.00;101209.75;5053220;28;20039;-77
2023/04/09 03:21:27;;;;;;;;;;;;;;;7.56;100.00;101213.41;5053016;28;19913;-77
2023/04/09 03:23:52;;;;;;;;;;;;;;;7.58;100.00;101205.19;5035207;28;19960;-79
2023/04/09 03:26:17;;;;;;;;;;;;;;;7.58;100.00;101215.78;5018637;28;19913;-78
2023/04/09 03:28:42;;;;;;;;;;;;;;;7.58;100.00;101212.94;5053139;28;19996;-78
2023/04/09 03:31:08;;;;;;;;;;;;;;;7.57;100.00;101212.13;5035170;28;19916;-78
2023/04/09 03:33:33;;;;;;;;;;;;;;;7.57;100.00;101211.38;5052993;28;19913;-77
2023/04/09 03:35:58;;;;;;;;;;;;;;;7.58;100.00;101210.88;5053061;28;19916;-77
2023/04/09 03:38:23;;;;;;;;;;;;;;;7.59;100.00;101206.81;5053109;28;20388;-76
2023/04/09 03:40:49;;;;;;;;;;;;;;;7.61;100.00;101210.00;5035075;28;19967;-78
2023/04/09 03:43:14;;;;;;;;;;;;;;;7.61;100.00;101212.06;5034820;28;20032;-76
2023/04/09 03:45:39;;;;;;;;;;;;;;;7.59;100.00;101212.50;5052985;28;19917;-76
2023/04/09 03:48:05;;;;;;;;;;;;;;;7.54;100.00;101211.00;5052959;28;19913;-78
2023/04/09 03:50:30;;;;;;;;;;;;;;;7.52;100.00;101209.88;5053445;28;20023;-79
2023/04/09 03:52:55;;;;;;;;;;;;;;;7.54;100.00;101208.16;5035518;28;19958;-77
2023/04/09 03:55:21;;;;;;;;;;;;;;;7.58;100.00;101216.56;5037519;28;19948;-78
2023/04/09 03:57:46;;;;;;;;;;;;;;;7.62;100.00;101213.66;5057610;28;19913;-77
2023/04/09 04:00:11;;;;;;;;;;;;;;;7.65;100.00;101218.44;5057563;28;20361;-78
2023/04/09 04:02:36;;;;;;;;;;;;;;;7.68;100.00;101214.66;5057316;28;19913;-76
2023/04/09 04:05:02;;;;;;;;;;;;;;;7.70;100.00;101215.84;5056875;28;19913;-77
2023/04/09 04:07:27;;;;;;;;;;;;;;;7.73;100.00;101223.47;5056982;28;20008;-79
2023/04/09 04:09:52;;;;;;;;;;;;;;;7.76;100.00;101228.25;5056562;28;20262;-78
2023/04/09 04:12:17;;;;;;;;;;;;;;;7.77;100.00;101229.84;5056673;28;20453;-77
2023/04/09 04:14:43;;;;;;;;;;;;;;;7.80;100.00;101231.00;5056429;28;19912;-77
2023/04/09 04:17:09;;;;;;;;;;;;;;;7.82;100.00;101232.13;5056669;28;19920;-77
2023/04/09 04:19:34;;;;;;;;;;;;;;;7.82;100.00;101232.13;5038452;28;19936;-77
2023/04/09 04:21:59;;;;;;;;;;;;;;;7.84;100.00;101238.19;5056322;28;20019;-77
2023/04/09 04:24:25;;;;;;;;;;;;;;;7.87;100.00;101239.31;5038427;28;19913;-78
2023/04/09 04:26:50;;;;;;;;;;;;;;;7.89;100.00;101242.50;5056446;28;20362;-77
2023/04/09 04:29:15;;;;;;;;;;;;;;;7.89;100.00;101240.47;5055938;28;19924;-77
2023/04/09 04:31:40;;;;;;;;;;;;;;;7.90;100.00;101244.91;5056150;28;19913;-77
2023/04/09 04:34:06;;;;;;;;;;;;;;;7.90;100.00;101249.81;5038322;28;19913;-76
2023/04/09 04:36:31;;;;;;;;;;;;;;;7.88;100.00;101252.28;5056203;28;20350;-78
2023/04/09 04:38:56;;;;;;;;;;;;;;;7.87;100.00;101256.38;5038099;28;19913;-78
2023/04/09 04:41:22;;;;;;;;;;;;;;;7.86;100.00;101251.97;5056116;28;19948;-76
2023/04/09 04:43:47;;;;;;;;;;;;;;;7.85;100.00;101251.16;5056192;28;19927;-79
2023/04/09 04:46:12;;;;;;;;;;;;;;;7.83;100.00;101238.63;5037899;28;20294;-78
2023/04/09 04:48:37;;;;;;;;;;;;;;;7.79;100.00;101243.63;5055876;28;19916;-77
2023/04/09 04:51:03;;;;;;;;;;;;;;;7.69;100.00;101244.72;5037870;28;19913;-77
2023/04/09 04:53:28;;;;;;;;;;;;;;;7.59;100.00;101246.63;5055772;28;19912;-77
2023/04/09 04:55:53;;;;;;;;;;;;;;;7.50;100.00;101244.44;5055590;28;19920;-78
2023/04/09 04:58:19;;;;;;;;;;;;;;;7.45;100.00;101247.03;5038082;28;19913;-78
2023/04/09 05:00:44;;;;;;;;;;;;;;;7.45;100.00;101247.03;5055811;28;20282;-76
2023/04/09 05:03:10;;;;;;;;;;;;;;;7.43;100.00;101252.34;5055490;28;19921;-77
2023/04/09 05:05:35;;;;;;;;;;;;;;;7.42;100.00;101248.69;5055346;28;20008;-77
2023/04/09 05:08:00;;;;;;;;;;;;;;;7.45;100.00;101247.03;5054816;28;19924;-78
2023/04/09 05:10:26;;;;;;;;;;;;;;;7.46;100.00;101255.13;5055151;28;20293;-77
2023/04/09 05:12:51;;;;;;;;;;;;;;;7.53;100.00;101265.47;5037845;28;20022;-78
2023/04/09 05:15:16;;;;;;;;;;;;;;;7.58;100.00;101258.44;5055473;28;20326;-80
2023/04/09 05:17:42;;;;;;;;;;;;;;;7.63;100.00;101263.59;5055305;28;20401;-77
2023/04/09 05:20:07;;;;;;;;;;;;;;;7.64;100.00;101260.28;5037232;28;19979;-77
2023/04/09 05:22:33;;;;;;;;;;;;;;;7.65;100.00;101264.75;5055257;28;19944;-77
2023/04/09 05:24:58;;;;;;;;;;;;;;;7.68;100.00;101258.16;5020492;28;19916;-78
2023/04/09 05:27:24;;;;;;;;;;;;;;;7.67;100.00;101264.31;5055062;28;20007;-78
2023/04/09 05:29:50;;;;;;;;;;;;;;;7.59;100.00;101260.03;5054878;28;19978;-78
2023/04/09 05:32:15;;;;;;;;;;;;;;;7.51;100.00;101262.31;5036981;28;20362;-77
2023/04/09 05:34:40;;;;;;;;;;;;;;;7.50;100.00;101266.38;5054987;28;19925;-77
2023/04/09 05:37:06;;;;;;;;;;;;;;;7.51;100.00;101259.47;5054875;28;19919;-79
2023/04/09 05:39:31;;;;;;;;;;;;;;;7.51;100.00;101273.69;5054402;28;20246;-78
2023/04/09 05:41:57;;;;;;;;;;;;;;;7.51;100.00;101271.63;5037273;28;20238;-77
2023/04/09 05:44:22;;;;;;;;;;;;;;;7.59;100.00;101277.09;5054236;28;20382;-78
2023/04/09 05:46:47;;;;;;;;;;;;;;;7.68;100.00;101280.09;5054604;28;19913;-78
2023/04/09 05:49:12;;;;;;;;;;;;;;;7.68;100.00;101286.59;5054359;28;19939;-78
2023/04/09 05:51:38;;;;;;;;;;;;;;;7.70;100.00;101286.16;5054585;28;20285;-76
2023/04/09 05:54:03;;;;;;;;;;;;;;;7.74;100.00;101287.66;5054540;28;20376;-78
2023/04/09 05:56:28;;;;;;;;;;;;;;;7.75;100.00;101283.56;5054612;28;20065;-77
2023/04/09 05:58:54;;;;;;;;;;;;;;;7.76;100.00;101287.22;5054606;28;20397;-77
2023/04/09 06:01:19;;;;;;;;;;;;;;;7.76;100.00;101285.16;5054273;28;20370;-77
2023/04/09 06:03:45;;;;;;;;;;;;;;;7.78;100.00;101279.00;5054073;28;19935;-77
2023/04/09 06:06:10;;;;;;;;;;;;;;;7.72;100.00;101297.88;5054313;28;20004;-78
2023/04/09 06:08:35;;;;;;;;;;;;;;;7.71;100.00;101288.56;5054070;28;19974;-77
2023/04/09 06:11:01;;;;;;;;;;;;;;;7.64;100.00;101290.78;5019641;28;20285;-77
2023/04/09 06:13:26;;;;;;;;;;;;;;;7.60;100.00;101290.88;5058864;28;19920;-77
2023/04/09 06:15:51;;;;;;;;;;;;;;;7.56;100.00;101284.50;5054083;28;19997;-77
2023/04/09 06:18:17;;;;;;;;;;;;;;;7.50;100.00;101283.44;5052958;28;19916;-77
2023/04/09 06:20:42;;;;;;;;;;;;;;;7.42;100.00;101284.91;5054095;28;19912;-77
2023/04/09 06:23:07;;;;;;;;;;;;;;;7.38;100.00;101282.13;5019546;28;19928;-77
2023/04/09 06:25:32;;;;;;;;;;;;;;;7.36;100.00;101284.63;5053733;28;19916;-79
2023/04/09 06:27:58;;;;;;;;;;;;;;;7.40;100.00;101288.19;5054144;28;19964;-79
2023/04/09 06:30:23;;;;;;;;;;;;;;;7.43;100.00;101286.47;5053669;28;19917;-76
2023/04/09 06:32:49;;;;;;;;;;;;;;;7.44;100.00;101280.34;5053786;28;19971;-77
2023/04/09 06:35:15;;;;;;;;;;;;;;;7.41;100.00;101283.28;5053948;28;20008;-77
2023/04/09 06:37:40;;;;;;;;;;;;;;;7.32;100.00;101275.41;5054419;28;19917;-76
2023/04/09 06:40:06;;;;;;;;;;;;;;;7.18;100.00;101270.06;5058509;28;19919;-79
2023/04/09 06:42:31;;;;;;;;;;;;;;;7.07;100.00;101264.69;5062380;28;19913;-77
2023/04/09 06:44:56;;;;;;;;;;;;;;;7.09;100.00;101276.41;5059801;28;19921;-77
2023/04/09 06:47:22;;;;;;;;;;;;;;;7.08;100.00;101276.84;5038995;28;19924;-76
2023/04/09 06:49:47;;;;;;;;;;;;;;;7.01;100.00;101277.81;5054784;28;20414;-77
2023/04/09 06:52:12;;;;;;;;;;;;;;;7.01;100.00;101283.50;5054551;28;19967;-76
2023/04/09 06:54:37;;;;;;;;;;;;;;;7.02;100.00;101299.31;5035744;28;19913;-76
2023/04/09 06:57:03;;;;;;;;;;;;;;;7.04;100.00;101310.22;5053586;28;19913;-78
2023/04/09 06:59:28;;;;;;;;;;;;;;;7.07;100.00;101298.00;5053544;28;20389;-76
2023/04/09 07:01:53;;;;;;;;;;;;;;;7.10;100.00;101294.25;5035635;28;20354;-79
2023/04/09 07:04:18;;;;;;;;;;;;;;;7.12;100.00;101302.34;5053382;28;19955;-77
2023/04/09 07:06:44;;;;;;;;;;;;;;;7.11;100.00;101295.84;5053201;28;20377;-77
2023/04/09 07:09:09;;;;;;;;;;;;;;;7.06;100.00;101300.03;5052944;28;19916;-75
2023/04/09 07:11:34;;;;;;;;;;;;;;;7.00;100.00;101284.75;5053185;28;20341;-77
2023/04/09 07:13:59;;;;;;;;;;;;;;;6.97;100.00;101290.53;5053157;28;19917;-76
2023/04/09 07:16:25;;;;;;;;;;;;;;;6.99;100.00;101293.72;5052947;28;20372;-77
2023/04/09 07:18:50;;;;;;;;;;;;;;;6.98;100.00;101306.31;5052973;28;19917;-78
2023/04/09 07:21:15;;;;;;;;;;;;;;;7.04;100.00;101313.88;5018533;28;19928;-76
2023/04/09 07:23:41;;;;;;;;;;;;;;;7.08;100.00;101313.78;5035411;28;19919;-78
2023/04/09 07:26:06;;;;;;;;;;;;;;;7.08;100.00;101308.09;5052939;28;19922;-77
2023/04/09 07:28:31;;;;;;;;;;;;;;;7.07;100.00;101307.31;5053290;28;20007;-78
2023/04/09 07:30:57;;;;;;;;;;;;;;;7.12;100.00;101308.81;5056422;28;19913;-78
2023/04/09 07:33:22;;;;;;;;;;;;;;;7.17;100.00;101316.00;5039140;28;19913;-79
2023/04/09 07:35:48;;;;;;;;;;;;;;;7.23;100.00;101314.22;5057028;28;20369;-77
2023/04/09 07:38:13;;;;;;;;;;;;;;;7.19;100.00;101310.66;5057378;28;19959;-78
2023/04/09 07:40:38;;;;;;;;;;;;;;;7.15;100.00;101316.44;5057571;28;20424;-78
2023/04/09 07:43:03;;;;;;;;;;;;;;;7.14;100.00;101314.84;5056757;28;19920;-78
2023/04/09 07:45:29;;;;;;;;;;;;;;;7.19;100.00;101322.03;5035485;28;19921;-77
2023/04/09 07:47:54;;;;;;;;;;;;;;;7.26;100.00;101316.19;5035608;28;20342;-79
2023/04/09 07:50:20;;;;;;;;;;;;;;;7.32;100.00;101308.72;5036850;28;20011;-78
2023/04/09 07:52:46;;;;;;;;;;;;;;;7.32;100.00;101305.88;5035466;28;20059;-77
2023/04/09 07:55:11;;;;;;;;;;;;;;;7.38;100.00;101306.91;5035460;28;20366;-78
2023/04/09 07:57:36;;;;;;;;;;;;;;;7.42;100.00;101305.56;5036668;28;19913;-80
2023/04/09 08:00:02;;;;;;;;;;;;;;;7.47;100.00;101312.78;5036810;28;19917;-78
2023/04/09 08:02:27;;;;;;;;;;;;;;;7.52;100.00;101315.88;5035844;28;19963;-78
2023/04/09 08:04:53;;;;;;;;;;;;;;;7.62;100.00;101319.66;5036744;28;20012;-77
2023/04/09 08:07:18;;;;;;;;;;;;;;;7.65;100.00;101313.09;5035302;28;19959;-77
2023/04/09 08:09:43;;;;;;;;;;;;;;;7.63;100.00;101326.16;5018745;28;20061;-78
2023/04/09 08:12:09;;;;;;;;;;;;;;;7.59;100.00;101325.47;5035329;28;19913;-78
2023/04/09 08:14:35;;;;;;;;;;;;;;;7.59;100.00;101328.31;5035199;28;19964;-78
2023/04/09 08:17:01;;;;;;;;;;;;;;;7.61;100.00;101331.50;5035163;28;19956;-78
2023/04/09 08:19:26;;;;;;;;;;;;;;;7.61;100.00;101329.47;5035213;28;20236;-77
2023/04/09 08:21:51;;;;;;;;;;;;;;;7.61;100.00;101329.47;5034850;28;19936;-77
2023/04/09 08:24:17;;;;;;;;;;;;;;;7.63;100.00;101323.31;5036284;28;19925;-79
2023/04/09 08:26:42;;;;;;;;;;;;;;;7.67;100.00;101324.03;5036389;28;19963;-79
2023/04/09 08:29:08;;;;;;;;;;;;;;;7.61;100.00;101320.13;5034969;28;19974;-78
2023/04/09 08:31:33;;;;;;;;;;;;;;;7.56;100.00;101317.84;5036262;28;19913;-79
2023/04/09 08:33:58;;;;;;;;;;;;;;;7.49;100.00;101318.81;5018453;28;20326;-77
2023/04/09 08:36:25;;;;;;;;;;;;;;;7.47;100.00;101315.63;5036130;28;19913;-79
2023/04/09 08:38:51;;;;;;;;;;;;;;;7.38;100.00;101315.44;5036026;28;19971;-78
2023/04/09 08:41:20;;;;;;;;;;;;;;;7.33;100.00;101316.78;5033493;28;19940;-78
2023/04/09 08:43:47;;;;;;;;;;;;;;;7.39;100.00;101311.38;5034356;28;19921;-78
2023/04/09 08:46:14;;;;;;;;;;;;;;;7.46;100.00;101316.88;5035998;28;19919;-77
2023/04/09 08:48:41;;;;;;;;;;;;;;;7.53;100.00;101323.16;5036356;28;19913;-79
2023/04/09 08:51:06;;;;;;;;;;;;;;;7.69;100.00;101330.06;5035741;28;20396;-78
2023/04/09 08:53:31;;;;;;;;;;;;;;;7.89;100.00;101325.03;5034529;28;19917;-78
2023/04/09 08:55:58;;;;;;;;;;;;;;;8.08;100.00;101324.06;5035943;28;19963;-78
2023/04/09 08:58:24;;;;;;;;;;;;;;;8.28;100.00;101326.78;5035926;28;19914;-80
2023/04/09 09:00:49;;;;;;;;;;;;;;;8.47;100.00;101328.63;5035795;28;20358;-79
2023/04/09 09:03:15;;;;;;;;;;;;;;;8.65;100.00;101319.56;5035786;28;19952;-79
2023/04/09 09:05:41;;;;;;;;;;;;;;;8.64;100.00;101323.66;5035538;28;20404;-77
2023/04/09 09:08:07;;;;;;;;;;;;;;;8.55;100.00;101324.34;5035650;28;19966;-78
2023/04/09 09:10:36;;;;;;;;;;;;;;;8.38;100.00;101317.13;5034294;28;20350;-79
2023/04/09 09:13:03;;;;;;;;;;;;;;;8.19;100.00;101335.19;5034298;28;20262;-80
2023/04/09 09:15:28;;;;;;;;;;;;;;;8.12;100.00;101332.50;5034244;28;19913;-79
2023/04/09 09:17:54;;;;;;;;;;;;;;;8.05;100.00;101338.41;5035721;28;20259;-78
2023/04/09 09:20:20;;;;;;;;;;;;;;;8.05;100.00;101327.03;5035741;28;19914;-79
2023/04/09 09:22:51;;;;;;;;;;;;;;;8.01;100.00;101326.34;5018000;28;19999;-79
2023/04/09 09:25:17;;;;;;;;;;;;;;;8.05;100.00;101330.69;5036113;28;19920;-77
2023/04/09 09:27:42;;;;;;;;;;;;;;;8.09;100.00;101334.22;5034244;28;19913;-78
2023/04/09 09:30:09;;;;;;;;;;;;;;;8.04;100.00;101340.47;5033922;28;19921;-77
2023/04/09 09:32:34;;;;;;;;;;;;;;;8.00;100.00;101334.06;5035260;28;20399;-79
2023/04/09 09:35:01;;;;;;;;;;;;;;;8.01;100.00;101332.84;5033743;28;19913;-79
2023/04/09 09:37:27;;;;;;;;;;;;;;;8.01;100.00;101343.41;5035743;28;20317;-80
2023/04/09 09:39:53;;;;;;;;;;;;;;;8.08;100.00;101341.16;5035032;28;20374;-79
2023/04/09 09:42:18;;;;;;;;;;;;;;;8.21;100.00;101344.09;5034914;28;19999;-77
2023/04/09 09:44:43;;;;;;;;;;;;;;;8.25;100.00;101339.06;5046771;28;20011;-79
2023/04/09 09:47:09;;;;;;;;;;;;;;;8.34;100.00;101337.16;5055169;28;20270;-80
2023/04/09 09:49:34;;;;;;;;;;;;;;;8.49;100.00;101342.44;5054495;28;19923;-79
2023/04/09 09:52:01;;;;;;;;;;;;;;;8.61;100.00;101338.78;5036662;28;19913;-78
2023/04/09 09:54:26;;;;;;;;;;;;;;;8.56;100.00;101316.59;5054813;28;20335;-79
2023/04/09 09:56:52;;;;;;;;;;;;;;;8.50;100.00;101324.09;5054730;28;19975;-78
2023/04/09 09:59:21;;;;;;;;;;;;;;;8.34;100.00;101325.78;5054594;28;19923;-77
2023/04/09 10:01:47;;;;;;;;;;;;;;;8.25;100.00;101327.69;5054634;28;20106;-79
2023/04/09 10:04:13;;;;;;;;;;;;;;;8.19;100.00;101316.06;5054392;28;19940;-79
2023/04/09 10:06:42;;;;;;;;;;;;;;;8.19;100.00;101318.09;5055039;28;19913;-78
2023/04/09 10:09:08;;;;;;;;;;;;;;;8.15;100.00;101314.53;5036824;28;20266;-78
2023/04/09 10:11:34;;;;;;;;;;;;;;;8.07;100.00;101318.81;5054328;28;19920;-79
2023/04/09 10:14:00;;;;;;;;;;;;;;;8.11;100.00;101313.84;5054271;28;19913;-79
2023/04/09 10:16:28;;;;;;;;;;;;;;;8.08;100.00;101318.38;5054174;28;20329;-78
2023/04/09 10:18:54;;;;;;;;;;;;;;;8.10;100.00;101323.63;5054096;28;19923;-79
2023/04/09 10:21:40;;;;;;;;;;;;;;;8.06;100.00;101326.59;5041247;28;20000;-78
2023/04/09 10:24:06;;;;;;;;;;;;;;;8.04;100.00;101312.00;5029089;28;19912;-76
2023/04/09 10:26:39;;;;;;;;;;;;;;;8.01;100.00;101315.75;5036386;28;20316;-79
2023/04/09 10:29:12;;;;;;;;;;;;;;;8.03;100.00;101318.13;5036095;28;19960;-77
2023/04/09 10:31:44;;;;;;;;;;;;;;;8.06;100.00;101323.75;5053785;28;19947;-77
2023/04/09 10:34:09;;;;;;;;;;;;;;;8.07;100.00;101315.97;5036124;28;19916;-77
2023/04/09 10:36:35;;;;;;;;;;;;;;;8.14;100.00;101319.44;5035949;28;19913;-77
2023/04/09 10:39:00;;;;;;;;;;;;;;;8.26;100.00;101312.22;5053783;28;20404;-78
2023/04/09 10:41:26;;;;;;;;;;;;;;;8.26;100.00;101312.22;5036044;28;19912;-79
2023/04/09 10:43:51;;;;;;;;;;;;;;;8.20;100.00;101317.66;5032044;28;19933;-79
2023/04/09 10:46:50;;;;;;;;;;;;;;;8.24;100.00;101321.19;5033958;28;20058;-77
2023/04/09 10:49:16;;;;;;;;;;;;;;;8.37;100.00;101318.34;5011266;28;19924;-79
2023/04/09 10:51:47;;;;;;;;;;;;;;;8.48;100.00;101313.13;5033570;28;19924;-78
2023/04/09 10:54:47;;;;;;;;;;;;;;;8.52;100.00;101318.72;5033543;28;19973;-78
2023/04/09 10:57:16;;;;;;;;;;;;;;;8.58;100.00;101320.56;4992577;28;19920;-79
2023/04/09 10:59:46;;;;;;;;;;;;;;;8.68;100.00;101321.47;5029308;28;20373;-79
2023/04/09 11:02:26;;;;;;;;;;;;;;;8.81;100.00;101320.22;5041824;28;19921;-76
2023/04/09 11:05:10;;;;;;;;;;;;;;;8.93;100.00;101310.09;5041608;28;19963;-79
2023/04/09 11:07:38;;;;;;;;;;;;;;;9.09;100.00;101320.56;5035302;28;19921;-78
2023/04/09 11:10:03;;;;;;;;;;;;;;;9.24;100.00;101318.84;5035793;28;19962;-79
2023/04/09 11:12:28;;;;;;;;;;;;;;;9.33;100.00;101304.66;5035965;28;20075;-78
2023/04/09 11:14:53;;;;;;;;;;;;;;;9.34;100.00;101311.97;5033653;28;19913;-80
2023/04/09 11:17:19;;;;;;;;;;;;;;;9.37;100.00;101310.25;5033808;28;19913;-77
2023/04/09 11:19:44;;;;;;;;;;;;;;;9.41;100.00;101308.84;5034597;28;20313;-84
2023/04/09 11:22:09;;;;;;;;;;;;;;;9.49;100.00;101318.78;5037007;28;19919;-85
2023/04/09 11:24:41;;;;;;;;;;;;;;;9.52;100.00;101317.84;5035403;28;19982;-84
2023/04/09 11:27:07;;;;;;;;;;;;;;;9.45;100.00;101312.38;5033217;28;19913;-84
2023/04/09 11:29:33;;;;;;;;;;;;;;;9.39;100.00;101302.03;5035290;28;19928;-84
2023/04/09 11:31:58;;;;;;;;;;;;;;;9.27;100.00;101301.59;5035020;28;20015;-84
2023/04/09 11:34:26;;;;;;;;;;;;;;;9.20;100.00;101313.22;5034991;28;19948;-84
2023/04/09 11:36:51;;;;;;;;;;;;;;;9.12;100.00;101309.03;5034563;28;19917;-83
2023/04/09 11:39:17;;;;;;;;;;;;;;;9.04;100.00;101304.84;5034561;28;19917;-83
2023/04/09 11:41:42;;;;;;;;;;;;;;;8.98;100.00;101298.09;5034468;28;19966;-84
2023/04/09 11:44:07;;;;;;;;;;;;;;;8.99;100.00;101293.22;5032441;28;20294;-84
2023/04/09 11:46:33;;;;;;;;;;;;;;;9.01;100.00;101293.53;5033839;28;19913;-85
2023/04/09 11:48:58;;;;;;;;;;;;;;;9.00;100.00;101294.81;5032798;28;20363;-83
2023/04/09 11:51:25;;;;;;;;;;;;;;;9.01;100.00;101294.34;5015901;28;19917;-83
2023/04/09 11:53:50;;;;;;;;;;;;;;;9.00;100.00;101294.81;5033370;28;20000;-84
2023/04/09 11:56:15;;;;;;;;;;;;;;;9.02;100.00;101295.94;5033392;28;19967;-83
2023/04/09 11:58:46;;;;;;;;;;;;;;;9.09;100.00;101292.06;5032205;28;19917;-85
2023/04/09 12:01:11;;;;;;;;;;;;;;;9.07;100.00;101294.56;5016195;28;19917;-83
2023/04/09 12:03:36;;;;;;;;;;;;;;;9.03;100.00;101293.88;5034504;28;19995;-83
2023/04/09 12:06:02;;;;;;;;;;;;;;;9.06;100.00;101304.34;5032634;28;19935;-83
2023/04/09 12:08:27;;;;;;;;;;;;;;;9.15;100.00;101305.25;5033541;28;19921;-84
2023/04/09 12:10:53;;;;;;;;;;;;;;;9.28;100.00;101293.84;5031890;28;20370;-83
2023/04/09 12:13:18;;;;;;;;;;;;;;;9.41;100.00;101299.50;5033252;28;19913;-85
2023/04/09 12:15:44;;;;;;;;;;;;;;;9.51;100.00;101309.75;5033408;28;19968;-84
2023/04/09 12:18:11;;;;;;;;;;;;;;;9.51;100.00;101316.25;5035900;28;20017;-85
2023/04/09 12:20:38;;;;;;;;;;;;;;;9.54;100.00;101326.75;5035584;28;19921;-84
2023/04/09 12:23:04;;;;;;;;;;;;;;;9.63;100.00;101315.44;5036648;28;19917;-84
2023/04/09 12:25:30;;;;;;;;;;;;;;;9.70;100.00;101309.44;5035516;28;19917;-84
2023/04/09 12:27:55;;;;;;;;;;;;;;;9.77;100.00;101304.78;5037004;28;19967;-84
2023/04/09 12:30:21;;;;;;;;;;;;;;;9.85;100.00;101306.91;5037132;28;19923;-83